sensor_id;sensor_type;location;lat;lon;timestamp;pressure;altitude;pressure_sealevel;temperature;humidity
21956;BME280;11142;49.930;8.606;2023-08-06T00:01:32;99155.66;;;16.44;100.00
21956;BME280;11142;49.930;8.606;2023-08-06T00:04:00;99149.28;;;16.46;100.00
21956;BME280;11142;49.930;8.606;2023-08-06T00:06:28;99149.78;;;16.42;100.00
21956;BME280;11142;49.930;8.606;2023-08-06T00:08:56;99152.66;;;16.31;100.00
21956;BME280;11142;49.930;8.606;2023-08-06T00:11:24;99146.44;;;16.32;100.00
21956;BME280;11142;49.930;8.606;2023-08-06T00:13:52;99141.25;;;16.40;100.00
21956;BME280;11142;49.930;8.606;2023-08-06T00:16:20;99136.69;;;16.42;100.00
21956;BME280;11142;49.930;8.606;2023-08-06T00:18:49;99141.28;;;16.48;100.00
21956;BME280;11142;49.930;8.606;2023-08-06T00:21:17;99137.81;;;16.73;100.00
21956;BME280;11142;49.930;8.606;2023-08-06T00:23:45;99138.16;;;16.86;100.00
21956;BME280;11142;49.930;8.606;2023-08-06T00:26:13;99142.13;;;17.07;100.00
21956;BME280;11142;49.930;8.606;2023-08-06T00:28:40;99134.09;;;17.16;100.00
21956;BME280;11142;49.930;8.606;2023-08-06T00:31:08;99142.31;;;17.05;100.00
21956;BME280;11142;49.930;8.606;2023-08-06T00:33:36;99126.41;;;16.98;100.00
21956;BME280;11142;49.930;8.606;2023-08-06T00:36:06;99125.91;;;16.95;100.00
21956;BME280;11142;49.930;8.606;2023-08-06T00:38:34;99124.09;;;17.04;100.00
21956;BME280;11142;49.930;8.606;2023-08-06T00:41:02;99118.56;;;17.23;100.00
21956;BME280;11142;49.930;8.606;2023-08-06T00:43:30;99112.00;;;17.35;100.00
21956;BME280;11142;49.930;8.606;2023-08-06T00:45:58;99112.00;;;17.43;100.00
21956;BME280;11142;49.930;8.606;2023-08-06T00:48:26;99115.97;;;17.55;100.00
21956;BME280;11142;49.930;8.606;2023-08-06T00:50:54;99108.06;;;17.47;100.00
21956;BME280;11142;49.930;8.606;2023-08-06T00:53:23;99105.78;;;17.44;100.00
21956;BME280;11142;49.930;8.606;2023-08-06T00:55:51;99104.47;;;17.40;100.00
21956;BME280;11142;49.930;8.606;2023-08-06T00:58:19;99102.16;;;17.45;100.00
21956;BME280;11142;49.930;8.606;2023-08-06T01:00:47;99096.09;;;17.44;100.00
21956;BME280;11142;49.930;8.606;2023-08-06T01:03:15;99095.28;;;17.60;100.00
21956;BME280;11142;49.930;8.606;2023-08-06T01:05:43;99092.31;;;17.71;100.00
21956;BME280;11142;49.930;8.606;2023-08-06T01:08:21;99099.03;;;17.82;100.00
21956;BME280;11142;49.930;8.606;2023-08-06T01:10:59;99080.28;;;17.93;100.00
21956;BME280;11142;49.930;8.606;2023-08-06T01:13:30;99077.81;;;17.99;100.00
21956;BME280;11142;49.930;8.606;2023-08-06T01:15:59;99084.72;;;17.92;100.00
21956;BME280;11142;49.930;8.606;2023-08-06T01:18:29;99087.22;;;17.78;100.00
21956;BME280;11142;49.930;8.606;2023-08-06T01:21:01;99075.88;;;17.85;100.00
21956;BME280;11142;49.930;8.606;2023-08-06T01:23:29;99076.69;;;17.86;100.00
21956;BME280;11142;49.930;8.606;2023-08-06T01:25:59;99073.47;;;17.76;100.00
21956;BME280;11142;49.930;8.606;2023-08-06T01:28:32;99078.19;;;17.80;100.00
21956;BME280;11142;49.930;8.606;2023-08-06T01:31:02;99074.75;;;17.80;100.00
21956;BME280;11142;49.930;8.606;2023-08-06T01:33:32;99076.72;;;17.78;100.00
21956;BME280;11142;49.930;8.606;2023-08-06T01:36:03;99061.78;;;17.86;100.00
21956;BME280;11142;49.930;8.606;2023-08-06T01:38:31;99061.63;;;17.88;100.00
21956;BME280;11142;49.930;8.606;2023-08-06T01:40:59;99055.88;;;17.84;100.00
21956;BME280;11142;49.930;8.606;2023-08-06T01:43:28;99057.66;;;17.92;100.00
21956;BME280;11142;49.930;8.606;2023-08-06T01:45:55;99060.50;;;17.74;100.00
21956;BME280;11142;49.930;8.606;2023-08-06T01:48:24;99065.09;;;17.64;100.00
21956;BME280;11142;49.930;8.606;2023-08-06T01:50:52;99061.00;;;17.70;100.00
21956;BME280;11142;49.930;8.606;2023-08-06T01:53:21;99077.22;;;17.73;100.00
21956;BME280;11142;49.930;8.606;2023-08-06T01:55:51;99071.34;;;17.71;100.00
21956;BME280;11142;49.930;8.606;2023-08-06T01:58:19;99063.00;;;17.60;100.00
21956;BME280;11142;49.930;8.606;2023-08-06T02:00:49;99072.16;;;17.64;100.00
21956;BME280;11142;49.930;8.606;2023-08-06T02:03:17;99068.84;;;17.70;100.00
21956;BME280;11142;49.930;8.606;2023-08-06T02:05:47;99062.34;;;17.66;100.00
21956;BME280;11142;49.930;8.606;2023-08-06T02:08:22;99061.81;;;17.78;100.00
21956;BME280;11142;49.930;8.606;2023-08-06T02:10:57;99059.56;;;17.59;100.00
21956;BME280;11142;49.930;8.606;2023-08-06T02:13:26;99063.16;;;17.50;100.00
21956;BME280;11142;49.930;8.606;2023-08-06T02:15:54;99055.44;;;17.48;100.00
21956;BME280;11142;49.930;8.606;2023-08-06T02:18:24;99053.47;;;17.42;100.00
21956;BME280;11142;49.930;8.606;2023-08-06T02:20:56;99038.38;;;17.52;100.00
21956;BME280;11142;49.930;8.606;2023-08-06T02:23:27;99042.16;;;17.50;100.00
21956;BME280;11142;49.930;8.606;2023-08-06T02:25:58;99029.22;;;17.57;100.00
21956;BME280;11142;49.930;8.606;2023-08-06T02:28:27;99026.75;;;17.47;100.00
21956;BME280;11142;49.930;8.606;2023-08-06T02:33:50;99025.72;;;17.80;100.00
21956;BME280;11142;49.930;8.606;2023-08-06T02:36:20;99026.50;;;17.89;100.00
21956;BME280;11142;49.930;8.606;2023-08-06T02:38:49;99025.38;;;17.83;100.00
21956;BME280;11142;49.930;8.606;2023-08-06T02:41:17;99028.13;;;17.90;100.00
21956;BME280;11142;49.930;8.606;2023-08-06T02:43:48;99024.25;;;17.78;100.00
21956;BME280;11142;49.930;8.606;2023-08-06T02:46:17;99004.75;;;17.72;100.00
21956;BME280;11142;49.930;8.606;2023-08-06T02:48:46;98998.78;;;17.86;100.00
21956;BME280;11142;49.930;8.606;2023-08-06T02:51:14;99007.97;;;17.90;100.00
21956;BME280;11142;49.930;8.606;2023-08-06T02:53:42;99005.19;;;17.84;100.00
21956;BME280;11142;49.930;8.606;2023-08-06T02:56:14;98999.13;;;17.83;100.00
21956;BME280;11142;49.930;8.606;2023-08-06T02:58:52;99003.38;;;17.84;100.00
21956;BME280;11142;49.930;8.606;2023-08-06T03:01:30;99000.63;;;17.78;100.00
21956;BME280;11142;49.930;8.606;2023-08-06T03:04:05;98987.41;;;17.47;100.00
21956;BME280;11142;49.930;8.606;2023-08-06T03:06:38;98989.25;;;17.14;100.00
21956;BME280;11142;49.930;8.606;2023-08-06T03:09:06;98985.03;;;16.89;100.00
21956;BME280;11142;49.930;8.606;2023-08-06T03:11:35;98995.66;;;16.79;100.00
21956;BME280;11142;49.930;8.606;2023-08-06T03:14:08;98992.22;;;16.71;100.00
21956;BME280;11142;49.930;8.606;2023-08-06T03:16:37;98988.63;;;16.88;100.00
21956;BME280;11142;49.930;8.606;2023-08-06T03:19:07;98987.97;;;17.02;100.00
21956;BME280;11142;49.930;8.606;2023-08-06T03:21:35;98982.34;;;17.29;100.00
21956;BME280;11142;49.930;8.606;2023-08-06T03:24:05;98987.75;;;17.36;100.00
21956;BME280;11142;49.930;8.606;2023-08-06T03:26:35;98988.91;;;17.25;100.00
21956;BME280;11142;49.930;8.606;2023-08-06T03:29:04;98978.13;;;17.12;100.00
21956;BME280;11142;49.930;8.606;2023-08-06T03:31:33;98972.88;;;17.04;100.00
21956;BME280;11142;49.930;8.606;2023-08-06T03:34:02;98972.91;;;16.96;100.00
21956;BME280;11142;49.930;8.606;2023-08-06T03:36:36;98971.91;;;16.89;100.00
21956;BME280;11142;49.930;8.606;2023-08-06T03:39:05;98974.72;;;16.79;100.00
21956;BME280;11142;49.930;8.606;2023-08-06T03:41:36;98970.78;;;16.67;100.00
21956;BME280;11142;49.930;8.606;2023-08-06T03:44:08;98964.38;;;16.70;100.00
21956;BME280;11142;49.930;8.606;2023-08-06T03:46:40;98965.69;;;16.82;100.00
21956;BME280;11142;49.930;8.606;2023-08-06T03:49:10;98970.44;;;17.03;100.00
21956;BME280;11142;49.930;8.606;2023-08-06T03:51:38;98973.03;;;17.19;100.00
21956;BME280;11142;49.930;8.606;2023-08-06T03:54:06;98972.00;;;17.36;100.00
21956;BME280;11142;49.930;8.606;2023-08-06T03:56:36;98973.97;;;17.42;100.00
21956;BME280;11142;49.930;8.606;2023-08-06T03:59:06;98976.41;;;17.51;100.00
21956;BME280;11142;49.930;8.606;2023-08-06T04:01:34;98975.47;;;17.36;100.00
21956;BME280;11142;49.930;8.606;2023-08-06T04:04:04;98971.38;;;17.26;100.00
21956;BME280;11142;49.930;8.606;2023-08-06T04:06:32;98974.53;;;17.05;100.00
21956;BME280;11142;49.930;8.606;2023-08-06T04:09:00;98977.31;;;16.79;100.00
21956;BME280;11142;49.930;8.606;2023-08-06T04:11:29;98970.88;;;16.41;100.00
21956;BME280;11142;49.930;8.606;2023-08-06T04:13:59;98966.25;;;16.19;100.00
21956;BME280;11142;49.930;8.606;2023-08-06T04:16:26;98959.41;;;16.26;100.00
21956;BME280;11142;49.930;8.606;2023-08-06T04:18:55;98953.00;;;16.13;100.00
21956;BME280;11142;49.930;8.606;2023-08-06T04:21:23;98962.16;;;16.17;100.00
21956;BME280;11142;49.930;8.606;2023-08-06T04:23:51;98954.47;;;16.15;100.00
21956;BME280;11142;49.930;8.606;2023-08-06T04:26:19;98951.41;;;16.36;100.00
21956;BME280;11142;49.930;8.606;2023-08-06T04:28:47;98958.44;;;16.35;100.00
21956;BME280;11142;49.930;8.606;2023-08-06T04:31:17;98950.50;;;16.11;100.00
21956;BME280;11142;49.930;8.606;2023-08-06T04:33:44;98954.13;;;16.18;100.00
21956;BME280;11142;49.930;8.606;2023-08-06T04:36:14;98957.25;;;16.22;100.00
21956;BME280;11142;49.930;8.606;2023-08-06T04:38:43;98955.78;;;16.27;100.00
21956;BME280;11142;49.930;8.606;2023-08-06T04:41:15;98953.66;;;16.31;100.00
21956;BME280;11142;49.930;8.606;2023-08-06T04:43:42;98952.03;;;16.22;100.00
21956;BME280;11142;49.930;8.606;2023-08-06T04:46:11;98952.06;;;16.30;100.00
21956;BME280;11142;49.930;8.606;2023-08-06T04:48:41;98947.81;;;16.45;100.00
21956;BME280;11142;49.930;8.606;2023-08-06T04:51:11;98951.75;;;16.65;100.00
21956;BME280;11142;49.930;8.606;2023-08-06T04:53:40;98956.03;;;16.82;100.00
21956;BME280;11142;49.930;8.606;2023-08-06T04:56:09;98947.84;;;16.85;100.00
21956;BME280;11142;49.930;8.606;2023-08-06T04:58:40;98956.03;;;16.74;100.00
21956;BME280;11142;49.930;8.606;2023-08-06T05:01:10;98943.91;;;16.73;100.00
21956;BME280;11142;49.930;8.606;2023-08-06T05:03:39;98951.13;;;16.55;100.00
21956;BME280;11142;49.930;8.606;2023-08-06T05:06:09;98949.97;;;16.66;100.00
21956;BME280;11142;49.930;8.606;2023-08-06T05:08:37;98946.38;;;16.67;100.00
21956;BME280;11142;49.930;8.606;2023-08-06T05:11:06;98947.03;;;16.69;100.00
21956;BME280;11142;49.930;8.606;2023-08-06T05:13:36;98949.00;;;16.83;100.00
21956;BME280;11142;49.930;8.606;2023-08-06T05:16:04;98945.19;;;17.10;100.00
21956;BME280;11142;49.930;8.606;2023-08-06T05:18:33;98947.53;;;16.80;100.00
21956;BME280;11142;49.930;8.606;2023-08-06T05:21:01;98945.22;;;16.61;100.00
21956;BME280;11142;49.930;8.606;2023-08-06T05:23:31;98938.47;;;16.34;100.00
21956;BME280;11142;49.930;8.606;2023-08-06T05:26:00;98939.75;;;16.22;100.00
21956;BME280;11142;49.930;8.606;2023-08-06T05:28:28;98945.53;;;16.42;100.00
21956;BME280;11142;49.930;8.606;2023-08-06T05:30:56;98938.31;;;16.44;100.00
21956;BME280;11142;49.930;8.606;2023-08-06T05:33:26;98944.53;;;16.35;100.00
21956;BME280;11142;49.930;8.606;2023-08-06T05:35:54;98946.97;;;16.53;100.00
21956;BME280;11142;49.930;8.606;2023-08-06T05:38:25;98943.56;;;16.36;100.00
21956;BME280;11142;49.930;8.606;2023-08-06T05:40:54;98945.50;;;16.34;100.00
21956;BME280;11142;49.930;8.606;2023-08-06T05:43:23;98951.72;;;16.41;100.00
21956;BME280;11142;49.930;8.606;2023-08-06T05:45:51;98956.63;;;16.36;100.00
21956;BME280;11142;49.930;8.606;2023-08-06T05:48:20;98963.28;;;16.14;100.00
21956;BME280;11142;49.930;8.606;2023-08-06T05:50:52;98964.47;;;16.20;100.00
21956;BME280;11142;49.930;8.606;2023-08-06T05:53:21;98951.88;;;16.39;100.00
21956;BME280;11142;49.930;8.606;2023-08-06T05:55:50;98950.06;;;16.40;100.00
21956;BME280;11142;49.930;8.606;2023-08-06T05:58:21;98950.63;;;16.68;100.00
21956;BME280;11142;49.930;8.606;2023-08-06T06:00:53;98956.50;;;16.78;100.00
21956;BME280;11142;49.930;8.606;2023-08-06T06:03:22;98959.63;;;16.89;100.00
21956;BME280;11142;49.930;8.606;2023-08-06T06:05:54;98960.28;;;16.99;100.00
21956;BME280;11142;49.930;8.606;2023-08-06T06:08:23;98959.28;;;17.00;100.00
21956;BME280;11142;49.930;8.606;2023-08-06T06:10:51;98959.78;;;17.04;100.00
21956;BME280;11142;49.930;8.606;2023-08-06T06:13:25;98958.31;;;16.93;100.00
21956;BME280;11142;49.930;8.606;2023-08-06T06:15:54;98957.00;;;17.06;100.00
21956;BME280;11142;49.930;8.606;2023-08-06T06:18:22;98962.19;;;17.30;100.00
21956;BME280;11142;49.930;8.606;2023-08-06T06:20:54;98961.44;;;17.05;100.00
21956;BME280;11142;49.930;8.606;2023-08-06T06:23:24;98966.31;;;17.00;100.00
21956;BME280;11142;49.930;8.606;2023-08-06T06:25:52;98966.19;;;17.02;100.00
21956;BME280;11142;49.930;8.606;2023-08-06T06:28:21;98964.72;;;16.99;100.00
21956;BME280;11142;49.930;8.606;2023-08-06T06:30:51;98968.44;;;17.13;100.00
21956;BME280;11142;49.930;8.606;2023-08-06T06:33:20;98966.94;;;17.26;100.00
21956;BME280;11142;49.930;8.606;2023-08-06T06:35:49;98962.50;;;17.43;100.00
21956;BME280;11142;49.930;8.606;2023-08-06T06:38:18;98963.56;;;17.73;100.00
21956;BME280;11142;49.930;8.606;2023-08-06T06:40:55;98964.53;;;17.80;100.00
21956;BME280;11142;49.930;8.606;2023-08-06T06:43:25;98973.41;;;17.71;100.00
21956;BME280;11142;49.930;8.606;2023-08-06T06:45:57;98961.81;;;17.49;100.00
21956;BME280;11142;49.930;8.606;2023-08-06T06:48:26;98961.03;;;17.32;100.00
21956;BME280;11142;49.930;8.606;2023-08-06T06:50:55;98965.94;;;17.43;100.00
21956;BME280;11142;49.930;8.606;2023-08-06T06:53:23;98966.09;;;17.42;100.00
21956;BME280;11142;49.930;8.606;2023-08-06T06:55:54;98970.31;;;17.51;100.00
21956;BME280;11142;49.930;8.606;2023-08-06T06:58:23;98965.78;;;17.29;100.00
21956;BME280;11142;49.930;8.606;2023-08-06T07:00:51;98967.94;;;17.25;100.00
21956;BME280;11142;49.930;8.606;2023-08-06T07:03:23;98965.44;;;17.40;100.00
21956;BME280;11142;49.930;8.606;2023-08-06T07:05:51;98965.16;;;17.19;100.00
21956;BME280;11142;49.930;8.606;2023-08-06T07:08:21;98969.09;;;17.23;100.00
21956;BME280;11142;49.930;8.606;2023-08-06T07:10:49;98966.50;;;17.07;100.00
21956;BME280;11142;49.930;8.606;2023-08-06T07:13:17;98959.81;;;16.96;100.00
21956;BME280;11142;49.930;8.606;2023-08-06T07:15:45;98965.19;;;17.03;100.00
21956;BME280;11142;49.930;8.606;2023-08-06T07:18:15;98967.81;;;17.03;100.00
21956;BME280;11142;49.930;8.606;2023-08-06T07:20:49;98968.16;;;16.99;100.00
21956;BME280;11142;49.930;8.606;2023-08-06T07:23:18;98972.56;;;16.83;100.00
21956;BME280;11142;49.930;8.606;2023-08-06T07:25:46;98966.84;;;16.95;100.00
21956;BME280;11142;49.930;8.606;2023-08-06T07:28:14;98972.75;;;16.89;100.00
21956;BME280;11142;49.930;8.606;2023-08-06T07:30:44;98969.94;;;16.91;100.00
21956;BME280;11142;49.930;8.606;2023-08-06T07:33:12;98970.59;;;17.01;100.00
21956;BME280;11142;49.930;8.606;2023-08-06T07:35:40;98970.13;;;17.06;100.00
21956;BME280;11142;49.930;8.606;2023-08-06T07:38:11;98971.72;;;17.07;100.00
21956;BME280;11142;49.930;8.606;2023-08-06T07:40:39;98965.34;;;17.01;100.00
21956;BME280;11142;49.930;8.606;2023-08-06T07:43:08;98969.94;;;17.15;100.00
21956;BME280;11142;49.930;8.606;2023-08-06T07:45:36;98970.09;;;17.22;100.00
21956;BME280;11142;49.930;8.606;2023-08-06T07:48:05;98973.69;;;16.96;100.00
21956;BME280;11142;49.930;8.606;2023-08-06T07:50:33;98972.41;;;17.00;100.00
21956;BME280;11142;49.930;8.606;2023-08-06T07:53:02;98970.09;;;16.97;100.00
21956;BME280;11142;49.930;8.606;2023-08-06T07:55:31;98958.97;;;16.95;100.00
21956;BME280;11142;49.930;8.606;2023-08-06T07:57:59;98963.53;;;17.18;100.00
21956;BME280;11142;49.930;8.606;2023-08-06T08:00:27;98951.72;;;17.30;100.00
21956;BME280;11142;49.930;8.606;2023-08-06T08:02:55;98961.34;;;17.45;100.00
21956;BME280;11142;49.930;8.606;2023-08-06T08:05:23;98971.63;;;17.63;100.00
21956;BME280;11142;49.930;8.606;2023-08-06T08:07:52;98959.97;;;17.74;100.00
21956;BME280;11142;49.930;8.606;2023-08-06T08:10:20;98959.13;;;17.81;100.00
21956;BME280;11142;49.930;8.606;2023-08-06T08:12:49;98959.19;;;17.96;100.00
21956;BME280;11142;49.930;8.606;2023-08-06T08:15:17;98967.84;;;18.04;100.00
21956;BME280;11142;49.930;8.606;2023-08-06T08:17:46;98955.88;;;18.33;100.00
21956;BME280;11142;49.930;8.606;2023-08-06T08:20:16;98960.31;;;18.32;100.00
21956;BME280;11142;49.930;8.606;2023-08-06T08:22:44;98964.75;;;18.32;100.00
21956;BME280;11142;49.930;8.606;2023-08-06T08:25:13;98947.97;;;18.10;100.00
21956;BME280;11142;49.930;8.606;2023-08-06T08:27:40;98945.22;;;18.03;100.00
21956;BME280;11142;49.930;8.606;2023-08-06T08:30:10;98946.19;;;18.11;100.00
21956;BME280;11142;49.930;8.606;2023-08-06T08:32:39;98943.59;;;18.93;100.00
21956;BME280;11142;49.930;8.606;2023-08-06T08:35:07;98940.44;;;19.13;100.00
21956;BME280;11142;49.930;8.606;2023-08-06T08:37:35;98950.25;;;19.92;100.00
21956;BME280;11142;49.930;8.606;2023-08-06T08:40:04;98950.84;;;20.23;100.00
21956;BME280;11142;49.930;8.606;2023-08-06T08:42:32;98957.53;;;21.38;100.00
21956;BME280;11142;49.930;8.606;2023-08-06T08:45:03;98967.03;;;22.75;100.00
21956;BME280;11142;49.930;8.606;2023-08-06T08:47:33;98971.25;;;23.68;100.00
21956;BME280;11142;49.930;8.606;2023-08-06T08:50:02;98977.63;;;23.14;100.00
21956;BME280;11142;49.930;8.606;2023-08-06T08:52:31;98965.81;;;21.97;100.00
21956;BME280;11142;49.930;8.606;2023-08-06T08:55:01;98954.13;;;21.44;100.00
21956;BME280;11142;49.930;8.606;2023-08-06T08:57:30;98956.81;;;21.51;100.00
21956;BME280;11142;49.930;8.606;2023-08-06T08:59:58;98964.38;;;21.60;100.00
21956;BME280;11142;49.930;8.606;2023-08-06T09:02:30;98956.38;;;20.92;100.00
21956;BME280;11142;49.930;8.606;2023-08-06T09:05:02;98961.66;;;20.92;100.00
21956;BME280;11142;49.930;8.606;2023-08-06T09:07:34;98962.28;;;21.15;100.00
21956;BME280;11142;49.930;8.606;2023-08-06T09:10:04;98962.41;;;22.10;100.00
21956;BME280;11142;49.930;8.606;2023-08-06T09:12:32;98971.53;;;23.07;100.00
21956;BME280;11142;49.930;8.606;2023-08-06T09:15:00;98984.91;;;23.65;100.00
21956;BME280;11142;49.930;8.606;2023-08-06T09:17:30;98976.47;;;23.94;100.00
21956;BME280;11142;49.930;8.606;2023-08-06T09:19:59;98972.72;;;23.51;100.00
21956;BME280;11142;49.930;8.606;2023-08-06T09:22:34;98964.78;;;22.72;100.00
21956;BME280;11142;49.930;8.606;2023-08-06T09:25:02;98957.09;;;20.58;100.00
21956;BME280;11142;49.930;8.606;2023-08-06T09:27:36;98945.91;;;20.20;100.00
21956;BME280;11142;49.930;8.606;2023-08-06T09:30:05;98943.19;;;19.92;100.00
21956;BME280;11142;49.930;8.606;2023-08-06T09:32:44;98941.41;;;19.78;100.00
21956;BME280;11142;49.930;8.606;2023-08-06T09:35:17;98941.31;;;19.72;100.00
21956;BME280;11142;49.930;8.606;2023-08-06T09:37:46;98933.69;;;19.47;100.00
21956;BME280;11142;49.930;8.606;2023-08-06T09:40:24;98944.66;;;18.84;100.00
21956;BME280;11142;49.930;8.606;2023-08-06T09:42:54;98941.66;;;17.96;100.00
21956;BME280;11142;49.930;8.606;2023-08-06T09:45:22;98944.06;;;16.96;100.00
21956;BME280;11142;49.930;8.606;2023-08-06T09:47:55;98938.81;;;16.72;100.00
21956;BME280;11142;49.930;8.606;2023-08-06T09:50:23;98933.91;;;16.85;100.00
21956;BME280;11142;49.930;8.606;2023-08-06T09:52:57;98947.81;;;17.18;100.00
21956;BME280;11142;49.930;8.606;2023-08-06T09:55:25;98937.28;;;17.34;100.00
21956;BME280;11142;49.930;8.606;2023-08-06T09:57:54;98940.19;;;17.55;100.00
21956;BME280;11142;49.930;8.606;2023-08-06T10:00:25;98940.81;;;17.96;100.00
21956;BME280;11142;49.930;8.606;2023-08-06T10:02:53;98930.59;;;18.32;100.00
21956;BME280;11142;49.930;8.606;2023-08-06T10:05:23;98947.84;;;18.57;100.00
21956;BME280;11142;49.930;8.606;2023-08-06T10:07:52;98938.59;;;18.84;100.00
21956;BME280;11142;49.930;8.606;2023-08-06T10:10:24;98948.84;;;19.31;100.00
21956;BME280;11142;49.930;8.606;2023-08-06T10:12:54;98956.91;;;19.44;100.00
21956;BME280;11142;49.930;8.606;2023-08-06T10:15:25;98953.31;;;19.59;100.00
21956;BME280;11142;49.930;8.606;2023-08-06T10:17:54;98959.06;;;20.13;100.00
21956;BME280;11142;49.930;8.606;2023-08-06T10:20:26;98964.09;;;19.79;100.00
21956;BME280;11142;49.930;8.606;2023-08-06T10:23:03;98966.44;;;19.30;100.00
21956;BME280;11142;49.930;8.606;2023-08-06T10:25:34;98961.75;;;19.55;100.00
21956;BME280;11142;49.930;8.606;2023-08-06T10:28:07;98952.25;;;19.17;100.00
21956;BME280;11142;49.930;8.606;2023-08-06T10:30:40;98947.44;;;19.05;100.00
21956;BME280;11142;49.930;8.606;2023-08-06T10:33:11;98946.56;;;19.28;100.00
21956;BME280;11142;49.930;8.606;2023-08-06T10:35:40;98947.19;;;19.15;100.00
21956;BME280;11142;49.930;8.606;2023-08-06T10:38:13;98955.06;;;19.88;100.00
21956;BME280;11142;49.930;8.606;2023-08-06T10:40:48;98968.41;;;21.22;100.00
21956;BME280;11142;49.930;8.606;2023-08-06T10:43:26;98965.66;;;21.71;100.00
21956;BME280;11142;49.930;8.606;2023-08-06T10:45:56;98967.69;;;22.10;100.00
21956;BME280;11142;49.930;8.606;2023-08-06T10:48:34;98978.44;;;22.08;100.00
21956;BME280;11142;49.930;8.606;2023-08-06T10:51:03;98971.78;;;21.78;100.00
21956;BME280;11142;49.930;8.606;2023-08-06T10:53:33;98973.03;;;21.48;100.00
21956;BME280;11142;49.930;8.606;2023-08-06T10:56:07;98979.38;;;21.26;100.00
21956;BME280;11142;49.930;8.606;2023-08-06T10:58:39;98983.75;;;21.40;100.00
21956;BME280;11142;49.930;8.606;2023-08-06T11:01:08;98985.72;;;21.93;100.00
21956;BME280;11142;49.930;8.606;2023-08-06T11:03:40;98994.59;;;22.40;100.00
21956;BME280;11142;49.930;8.606;2023-08-06T11:06:09;98986.16;;;22.77;100.00
21956;BME280;11142;49.930;8.606;2023-08-06T11:08:40;98974.16;;;23.01;100.00
21956;BME280;11142;49.930;8.606;2023-08-06T11:11:22;98993.53;;;22.21;100.00
21956;BME280;11142;49.930;8.606;2023-08-06T11:13:52;98975.84;;;22.21;100.00
21956;BME280;11142;49.930;8.606;2023-08-06T11:16:21;98977.81;;;20.82;100.00
21956;BME280;11142;49.930;8.606;2023-08-06T11:18:54;98977.75;;;20.76;100.00
21956;BME280;11142;49.930;8.606;2023-08-06T11:21:24;98989.38;;;19.36;100.00
21956;BME280;11142;49.930;8.606;2023-08-06T11:23:53;98968.94;;;18.18;100.00
21956;BME280;11142;49.930;8.606;2023-08-06T11:26:24;98979.09;;;17.82;100.00
21956;BME280;11142;49.930;8.606;2023-08-06T11:28:54;98981.44;;;17.77;100.00
21956;BME280;11142;49.930;8.606;2023-08-06T11:31:23;98983.97;;;17.46;100.00
21956;BME280;11142;49.930;8.606;2023-08-06T11:33:52;99000.69;;;17.45;100.00
21956;BME280;11142;49.930;8.606;2023-08-06T11:36:28;98996.22;;;17.70;100.00
21956;BME280;11142;49.930;8.606;2023-08-06T11:38:58;99016.00;;;17.89;100.00
21956;BME280;11142;49.930;8.606;2023-08-06T11:41:29;99026.13;;;18.00;100.00
21956;BME280;11142;49.930;8.606;2023-08-06T11:43:58;99008.50;;;17.70;100.00
21956;BME280;11142;49.930;8.606;2023-08-06T11:46:27;99034.63;;;17.55;100.00
21956;BME280;11142;49.930;8.606;2023-08-06T11:48:57;99034.00;;;17.05;100.00
21956;BME280;11142;49.930;8.606;2023-08-06T11:51:26;99054.28;;;16.70;100.00
21956;BME280;11142;49.930;8.606;2023-08-06T11:53:55;99042.50;;;16.82;100.00
21956;BME280;11142;49.930;8.606;2023-08-06T11:56:24;99040.13;;;16.47;100.00
21956;BME280;11142;49.930;8.606;2023-08-06T11:58:56;99057.13;;;16.43;100.00
21956;BME280;11142;49.930;8.606;2023-08-06T12:01:25;99039.19;;;16.14;100.00
21956;BME280;11142;49.930;8.606;2023-08-06T12:03:58;99046.38;;;16.12;100.00
21956;BME280;11142;49.930;8.606;2023-08-06T12:06:27;99055.06;;;16.13;100.00
21956;BME280;11142;49.930;8.606;2023-08-06T12:08:55;99055.75;;;16.23;100.00
21956;BME280;11142;49.930;8.606;2023-08-06T12:11:23;99072.75;;;16.19;100.00
21956;BME280;11142;49.930;8.606;2023-08-06T12:13:52;99071.91;;;16.10;100.00
21956;BME280;11142;49.930;8.606;2023-08-06T12:16:21;99073.31;;;15.97;100.00
21956;BME280;11142;49.930;8.606;2023-08-06T12:18:50;99077.91;;;16.03;100.00
21956;BME280;11142;49.930;8.606;2023-08-06T12:21:19;99090.03;;;16.04;100.00
21956;BME280;11142;49.930;8.606;2023-08-06T12:23:47;99081.13;;;16.22;100.00
21956;BME280;11142;49.930;8.606;2023-08-06T12:26:15;99093.06;;;16.25;100.00
21956;BME280;11142;49.930;8.606;2023-08-06T12:28:43;99095.53;;;16.26;100.00
21956;BME280;11142;49.930;8.606;2023-08-06T12:31:11;99097.53;;;16.32;100.00
21956;BME280;11142;49.930;8.606;2023-08-06T12:33:41;99098.88;;;16.53;100.00
21956;BME280;11142;49.930;8.606;2023-08-06T12:36:10;99106.69;;;16.78;100.00
21956;BME280;11142;49.930;8.606;2023-08-06T12:38:38;99113.00;;;16.52;100.00
21956;BME280;11142;49.930;8.606;2023-08-06T12:41:11;99114.69;;;16.61;100.00
21956;BME280;11142;49.930;8.606;2023-08-06T12:43:39;99125.31;;;16.59;100.00
21956;BME280;11142;49.930;8.606;2023-08-06T12:46:07;99132.56;;;16.81;100.00
21956;BME280;11142;49.930;8.606;2023-08-06T12:48:37;99129.13;;;16.65;100.00
21956;BME280;11142;49.930;8.606;2023-08-06T12:51:07;99104.03;;;16.62;100.00
21956;BME280;11142;49.930;8.606;2023-08-06T12:53:35;99130.31;;;16.53;100.00
21956;BME280;11142;49.930;8.606;2023-08-06T12:56:03;99136.78;;;16.66;100.00
21956;BME280;11142;49.930;8.606;2023-08-06T12:58:32;99152.63;;;16.57;100.00
21956;BME280;11142;49.930;8.606;2023-08-06T13:01:00;99156.59;;;16.61;100.00
21956;BME280;11142;49.930;8.606;2023-08-06T13:03:28;99150.59;;;16.76;100.00
21956;BME280;11142;49.930;8.606;2023-08-06T13:05:59;99150.78;;;16.91;100.00